Time;durP1;ratioP1;P1;durP2;ratioP2;P2;SDS_P1;SDS_P2;PMS_P1;PMS_P2;Temp;Humidity;BMP_temperature;BMP_pressure;BME280_temperature;BME280_humidity;BME280_pressure;Samples;Min_cycle;Max_cycle;Signal;HPM_P1;HPM_P2
2021/03/29 00:00:13;;;;;;;8.50;4.65;;;9.00;92.10;;;;;;5064473;28;20376;-37
2021/03/29 00:02:39;;;;;;;8.98;5.03;;;9.00;92.10;;;;;;5064128;28;20013;-37
2021/03/29 00:05:05;;;;;;;8.70;4.43;;;9.00;92.10;;;;;;5063432;28;20056;-37
2021/03/29 00:07:33;;;;;;;8.27;4.68;;;8.90;92.10;;;;;;5063885;28;20028;-37
2021/03/29 00:10:02;;;;;;;8.50;4.07;;;8.90;92.20;;;;;;5064224;28;20035;-37
2021/03/29 00:12:28;;;;;;;7.88;4.35;;;8.90;92.20;;;;;;5063384;28;20055;-37
2021/03/29 00:14:54;;;;;;;8.93;4.15;;;8.90;92.20;;;;;;5063824;28;20040;-36
2021/03/29 00:17:20;;;;;;;6.35;4.07;;;8.90;92.20;;;;;;5064682;28;20035;-33
2021/03/29 00:19:47;;;;;;;7.72;4.88;;;8.90;92.30;;;;;;5063381;28;20032;-42
2021/03/29 00:22:13;;;;;;;7.65;3.63;;;8.80;92.20;;;;;;5064237;28;20395;-39
2021/03/29 00:24:39;;;;;;;7.35;3.90;;;8.80;92.20;;;;;;5064567;28;20024;-36
2021/03/29 00:27:06;;;;;;;8.77;4.13;;;8.90;92.20;;;;;;5063485;28;20024;-37
2021/03/29 00:29:34;;;;;;;6.55;3.90;;;8.80;92.20;;;;;;5064169;28;20036;-37
2021/03/29 00:32:01;;;;;;;6.82;3.60;;;8.90;92.20;;;;;;5067961;28;20021;-37
2021/03/29 00:34:28;;;;;;;8.65;4.00;;;8.80;92.20;;;;;;5067377;28;20028;-35
2021/03/29 00:36:54;;;;;;;8.15;4.90;;;8.80;92.20;;;;;;5067544;28;20032;-39
2021/03/29 00:39:22;;;;;;;11.27;4.43;;;8.80;92.20;;;;;;5068025;28;20032;-38
2021/03/29 00:41:49;;;;;;;9.40;4.82;;;8.80;92.20;;;;;;5066626;28;20153;-35
2021/03/29 00:44:16;;;;;;;9.45;4.55;;;8.80;92.30;;;;;;5067555;28;20013;-33
2021/03/29 00:46:42;;;;;;;8.98;4.47;;;8.80;92.20;;;;;;5067528;28;20474;-38
2021/03/29 00:49:08;;;;;;;11.13;5.45;;;8.80;92.20;;;;;;5066644;28;20711;-36
2021/03/29 00:51:36;;;;;;;10.18;4.40;;;8.80;92.20;;;;;;5067503;28;20460;-38
2021/03/29 00:54:04;;;;;;;6.82;3.63;;;8.80;92.20;;;;;;5067140;28;20043;-39
2021/03/29 00:56:31;;;;;;;8.07;3.92;;;8.80;92.20;;;;;;5066595;28;20132;-39
2021/03/29 00:58:58;;;;;;;9.65;4.00;;;8.80;92.20;;;;;;5067385;28;20024;-38
2021/03/29 01:01:36;;;;;;;6.70;3.50;;;8.80;92.10;;;;;;5066672;28;20039;-35
2021/03/29 01:04:03;;;;;;;11.15;4.00;;;8.80;92.10;;;;;;5066868;28;20074;-34
2021/03/29 01:06:35;;;;;;;8.48;4.65;;;8.80;92.10;;;;;;5066726;28;20052;-37
2021/03/29 01:09:11;;;;;;;6.75;3.80;;;8.80;92.20;;;;;;5066536;28;20345;-36
2021/03/29 01:11:48;;;;;;;7.75;4.10;;;8.80;92.20;;;;;;5066594;28;20102;-38
2021/03/29 01:14:25;;;;;;;8.10;3.70;;;8.80;92.20;;;;;;5067471;28;20108;-35
2021/03/29 01:16:56;;;;;;;9.18;3.90;;;8.70;92.10;;;;;;5066001;28;20040;-33
2021/03/29 01:19:47;;;;;;;9.10;3.85;;;8.70;92.10;;;;;;5067050;28;20488;-38
2021/03/29 01:22:15;;;;;;;10.13;4.28;;;8.70;92.10;;;;;;5066526;28;20076;-38
2021/03/29 01:24:57;;;;;;;8.90;4.35;;;8.70;92.10;;;;;;5066439;28;20131;-36
2021/03/29 01:27:29;;;;;;;6.47;3.70;;;8.70;92.10;;;;;;5066169;28;20035;-38
2021/03/29 01:29:56;;;;;;;8.85;3.88;;;8.70;92.10;;;;;;5066292;28;20522;-37
2021/03/29 01:32:22;;;;;;;9.10;3.95;;;8.70;92.10;;;;;;5066847;28;20074;-37
2021/03/29 01:34:50;;;;;;;9.38;3.63;;;8.70;92.10;;;;;;5066483;28;20020;-35
2021/03/29 01:37:16;;;;;;;9.57;4.15;;;8.70;92.10;;;;;;5065898;28;20558;-37
2021/03/29 01:39:42;;;;;;;9.60;5.03;;;8.70;92.20;;;;;;5066444;28;20166;-35
2021/03/29 01:42:10;;;;;;;8.02;3.88;;;8.70;92.20;;;;;;5066189;28;20036;-33
2021/03/29 01:44:36;;;;;;;8.65;4.00;;;8.70;92.20;;;;;;5066091;28;20020;-37
2021/03/29 01:47:05;;;;;;;11.32;4.05;;;8.80;92.20;;;;;;5066662;28;20153;-38
2021/03/29 01:49:31;;;;;;;9.05;4.65;;;8.80;92.20;;;;;;5066341;28;20112;-37
2021/03/29 01:51:58;;;;;;;10.65;4.70;;;8.80;92.20;;;;;;5065398;28;20100;-38
2021/03/29 01:54:23;;;;;;;14.75;5.35;;;8.90;92.30;;;;;;5066403;28;20024;-38
2021/03/29 01:56:49;;;;;;;12.95;5.35;;;8.90;92.40;;;;;;5065931;28;20121;-36
2021/03/29 01:59:15;;;;;;;12.68;5.05;;;8.90;92.30;;;;;;5065932;28;20048;-37
2021/03/29 02:01:40;;;;;;;11.10;4.75;;;9.00;92.20;;;;;;5066130;28;20028;-37
2021/03/29 02:04:06;;;;;;;10.13;4.72;;;9.00;92.20;;;;;;5065645;28;20036;-35
2021/03/29 02:06:33;;;;;;;10.48;4.90;;;9.00;92.20;;;;;;5065332;28;20027;-36
2021/03/29 02:09:00;;;;;;;10.70;4.50;;;9.00;92.20;;;;;;5065574;28;20031;-35
2021/03/29 02:11:26;;;;;;;12.68;5.13;;;9.00;92.10;;;;;;5066042;28;20025;-36
2021/03/29 02:13:54;;;;;;;13.30;4.60;;;9.00;92.10;;;;;;5064685;28;20564;-38
2021/03/29 02:16:20;;;;;;;12.15;4.82;;;9.00;92.20;;;;;;5066472;28;20039;-38
2021/03/29 02:18:52;;;;;;;8.82;5.00;;;9.00;92.20;;;;;;5065385;28;20033;-37
2021/03/29 02:21:23;;;;;;;11.73;5.32;;;9.00;92.30;;;;;;5066438;28;20035;-35
2021/03/29 02:23:54;;;;;;;12.23;5.10;;;9.00;92.50;;;;;;5065557;28;20108;-37
2021/03/29 02:26:21;;;;;;;12.00;5.10;;;9.00;92.40;;;;;;5066219;28;20313;-34
2021/03/29 02:28:48;;;;;;;11.13;5.47;;;9.00;92.40;;;;;;5065123;28;20349;-39
2021/03/29 02:31:16;;;;;;;10.13;4.75;;;9.00;92.40;;;;;;5065884;28;20094;-33
2021/03/29 02:33:42;;;;;;;13.95;5.88;;;9.00;92.30;;;;;;5065093;28;20052;-37
2021/03/29 02:36:08;;;;;;;14.82;5.75;;;9.00;92.50;;;;;;5065972;28;20040;-33
2021/03/29 02:38:34;;;;;;;13.10;5.72;;;8.90;92.50;;;;;;5065715;28;20035;-34
2021/03/29 02:41:01;;;;;;;11.57;5.05;;;8.90;92.50;;;;;;5065065;28;20337;-32
2021/03/29 02:43:27;;;;;;;9.45;5.30;;;8.90;92.40;;;;;;5065653;28;20028;-37
2021/03/29 02:45:57;;;;;;;11.50;5.07;;;8.90;92.50;;;;;;5065716;28;20036;-35
2021/03/29 02:48:25;;;;;;;10.93;4.93;;;8.90;92.50;;;;;;5065049;28;20017;-36
2021/03/29 02:50:54;;;;;;;12.00;5.13;;;8.90;92.50;;;;;;5065799;28;20028;-35
2021/03/29 02:53:23;;;;;;;13.48;4.82;;;8.90;92.50;;;;;;5065225;28;20091;-36
2021/03/29 02:55:50;;;;;;;11.05;5.20;;;8.90;92.40;;;;;;5064641;28;20056;-33
2021/03/29 02:58:21;;;;;;;12.52;5.55;;;8.90;92.40;;;;;;5065482;28;20107;-32
2021/03/29 03:00:47;;;;;;;9.70;4.47;;;8.90;92.40;;;;;;5064740;28;20116;-35
2021/03/29 03:03:13;;;;;;;10.60;5.40;;;8.90;92.40;;;;;;5065380;28;20032;-36
2021/03/29 03:05:40;;;;;;;14.10;4.70;;;8.90;92.40;;;;;;5064965;28;20059;-37
2021/03/29 03:08:07;;;;;;;12.23;4.93;;;8.90;92.40;;;;;;5065321;28;20341;-33
2021/03/29 03:10:34;;;;;;;11.00;4.90;;;8.90;92.40;;;;;;5065396;28;20024;-37
2021/03/29 03:13:05;;;;;;;10.82;5.88;;;8.80;92.40;;;;;;5065204;28;20028;-35
2021/03/29 03:15:32;;;;;;;10.50;4.80;;;8.80;92.40;;;;;;5064584;28;20051;-35
2021/03/29 03:18:00;;;;;;;10.70;4.32;;;8.80;92.40;;;;;;5065229;28;20173;-36
2021/03/29 03:20:27;;;;;;;12.13;4.93;;;8.80;92.60;;;;;;5064876;28;20115;-37
2021/03/29 03:23:09;;;;;;;10.55;5.00;;;8.80;92.40;;;;;;5064842;28;20769;-37
2021/03/29 03:25:41;;;;;;;12.50;5.35;;;8.80;92.40;;;;;;5064729;28;20555;-36
2021/03/29 03:28:10;;;;;;;10.40;5.45;;;8.70;92.40;;;;;;5064808;28;20593;-39
2021/03/29 03:30:42;;;;;;;14.50;5.85;;;8.70;92.40;;;;;;5064838;28;20044;-36
2021/03/29 03:33:10;;;;;;;12.05;5.65;;;8.70;92.50;;;;;;5065272;28;20122;-37
2021/03/29 03:35:37;;;;;;;11.02;5.55;;;8.70;92.40;;;;;;5064572;28;20360;-33
2021/03/29 03:38:13;;;;;;;16.17;6.68;;;8.70;92.40;;;;;;5064938;28;20159;-38
2021/03/29 03:40:41;;;;;;;11.85;6.15;;;8.70;92.50;;;;;;5064965;28;20032;-38
2021/03/29 03:43:08;;;;;;;13.88;7.03;;;8.60;92.40;;;;;;5064538;28;20075;-37
2021/03/29 03:45:42;;;;;;;13.27;6.70;;;8.60;92.50;;;;;;5064904;28;20505;-36
2021/03/29 03:48:08;;;;;;;11.40;5.88;;;8.60;92.50;;;;;;5064967;28;20456;-37
2021/03/29 03:50:36;;;;;;;14.73;8.10;;;8.60;92.50;;;;;;5064221;28;20103;-38
2021/03/29 03:53:03;;;;;;;13.98;6.93;;;8.60;92.50;;;;;;5064915;28;20031;-36
2021/03/29 03:55:35;;;;;;;13.95;7.78;;;8.60;92.60;;;;;;5064348;28;20102;-38
2021/03/29 03:58:02;;;;;;;22.83;9.73;;;8.50;92.60;;;;;;5054117;28;20177;-37
2021/03/29 04:00:29;;;;;;;15.25;8.27;;;8.50;92.60;;;;;;5064636;28;20116;-38
2021/03/29 04:02:54;;;;;;;12.95;7.68;;;8.50;92.60;;;;;;5064596;28;20480;-36
2021/03/29 04:05:20;;;;;;;12.60;6.82;;;8.50;92.60;;;;;;5068097;28;20174;-34
2021/03/29 04:07:49;;;;;;;13.13;7.80;;;8.50;92.60;;;;;;5068597;28;20055;-38
2021/03/29 04:10:22;;;;;;;16.90;7.90;;;8.60;92.70;;;;;;5068955;28;20036;-38
2021/03/29 04:12:54;;;;;;;17.90;8.18;;;8.60;92.70;;;;;;5067542;28;20477;-37
2021/03/29 04:15:20;;;;;;;13.77;7.45;;;8.50;92.80;;;;;;5069386;28;20025;-39
2021/03/29 04:17:46;;;;;;;12.32;7.88;;;8.60;92.70;;;;;;5068478;28;20079;-38
2021/03/29 04:20:13;;;;;;;14.95;7.80;;;8.60;92.60;;;;;;5068235;28;20329;-38
2021/03/29 04:22:39;;;;;;;15.50;8.07;;;8.60;92.70;;;;;;5068849;28;20032;-35
2021/03/29 04:25:07;;;;;;;13.70;7.13;;;8.60;92.80;;;;;;5068503;28;20020;-37
2021/03/29 04:27:32;;;;;;;11.13;7.05;;;8.60;92.60;;;;;;5067545;28;20099;-37
2021/03/29 04:29:59;;;;;;;16.42;7.10;;;8.70;92.70;;;;;;5068336;28;20127;-39
2021/03/29 04:32:25;;;;;;;10.50;5.32;;;8.70;92.70;;;;;;5067675;28;20032;-37
2021/03/29 04:34:53;;;;;;;13.93;6.43;;;8.60;92.60;;;;;;5068023;28;20040;-36
2021/03/29 04:37:19;;;;;;;10.68;6.57;;;8.70;92.70;;;;;;5068827;28;20165;-37
2021/03/29 04:39:44;;;;;;;12.60;6.38;;;8.70;92.80;;;;;;5067688;28;20123;-36
2021/03/29 04:42:10;;;;;;;12.82;6.00;;;8.60;92.80;;;;;;5067750;28;20468;-39
2021/03/29 04:44:36;;;;;;;13.60;6.28;;;8.60;92.80;;;;;;5068184;28;20032;-38
2021/03/29 04:47:02;;;;;;;12.05;5.82;;;8.70;92.90;;;;;;5067566;28;20050;-39
2021/03/29 04:49:27;;;;;;;12.80;5.90;;;8.70;92.80;;;;;;5067730;28;20380;-37
2021/03/29 04:51:53;;;;;;;10.13;4.88;;;8.70;92.80;;;;;;5068118;28;20498;-38
2021/03/29 04:54:21;;;;;;;14.00;5.28;;;8.70;92.80;;;;;;5067642;28;20025;-38
2021/03/29 04:56:47;;;;;;;12.73;5.50;;;8.70;92.80;;;;;;5067576;28;20040;-38
2021/03/29 04:59:12;;;;;;;11.50;4.65;;;8.70;92.80;;;;;;5067826;28;20024;-36
2021/03/29 05:01:38;;;;;;;11.32;4.55;;;8.70;92.70;;;;;;5067606;28;20037;-35
2021/03/29 05:04:04;;;;;;;8.10;4.75;;;8.70;92.80;;;;;;5067388;28;20032;-36
2021/03/29 05:06:30;;;;;;;9.88;4.78;;;8.70;92.90;;;;;;5067907;28;20029;-38
2021/03/29 05:08:56;;;;;;;14.25;5.20;;;8.70;92.90;;;;;;5067419;28;20032;-39
2021/03/29 05:11:22;;;;;;;10.93;4.97;;;8.70;93.00;;;;;;5068030;28;20479;-39
2021/03/29 05:13:47;;;;;;;11.45;5.15;;;8.60;92.90;;;;;;5067313;28;20614;-39
2021/03/29 05:16:13;;;;;;;10.32;5.05;;;8.60;93.10;;;;;;5066791;28;20515;-39
2021/03/29 05:18:41;;;;;;;10.25;4.45;;;8.70;93.20;;;;;;5066943;28;20017;-36
2021/03/29 05:21:07;;;;;;;14.98;4.32;;;8.60;93.10;;;;;;5067255;28;20185;-39
2021/03/29 05:23:32;;;;;;;10.02;3.90;;;8.60;93.00;;;;;;5067049;28;20094;-38
2021/03/29 05:25:57;;;;;;;7.97;3.80;;;8.60;93.00;;;;;;5067332;28;20036;-37
2021/03/29 05:28:23;;;;;;;11.13;4.57;;;8.60;93.00;;;;;;5067506;28;20035;-36
2021/03/29 05:30:49;;;;;;;11.02;4.03;;;8.60;93.10;;;;;;5067104;28;20029;-35
2021/03/29 05:33:15;;;;;;;9.50;4.40;;;8.60;93.10;;;;;;5067304;28;20413;-38
2021/03/29 05:35:41;;;;;;;10.57;4.20;;;8.60;93.30;;;;;;5066802;28;20135;-39
2021/03/29 05:38:06;;;;;;;9.88;4.60;;;8.60;93.50;;;;;;5067668;28;20108;-37
2021/03/29 05:40:35;;;;;;;8.85;4.20;;;8.60;93.30;;;;;;5066930;28;20035;-36
2021/03/29 05:43:01;;;;;;;9.18;4.22;;;8.60;93.30;;;;;;5067109;28;20555;-38
2021/03/29 05:45:31;;;;;;;12.20;4.10;;;8.60;93.30;;;;;;5066791;28;20024;-36
2021/03/29 05:47:57;;;;;;;9.02;4.10;;;8.60;93.20;;;;;;5045596;28;20025;-37
2021/03/29 05:50:23;;;;;;;8.18;3.58;;;8.70;93.20;;;;;;5059196;28;20743;-36
2021/03/29 05:52:48;;;;;;;6.63;3.85;;;8.70;93.10;;;;;;5066965;28;20074;-38
2021/03/29 05:55:18;;;;;;;6.18;3.60;;;8.70;93.10;;;;;;5066921;28;20462;-38
2021/03/29 05:58:07;;;;;;;11.68;3.88;;;8.70;93.10;;;;;;5066273;28;20429;-37
2021/03/29 06:00:40;;;;;;;11.80;4.40;;;8.80;93.10;;;;;;5064215;28;20337;-39
2021/03/29 06:03:29;;;;;;;10.85;4.07;;;8.80;93.20;;;;;;5063349;28;20028;-37
2021/03/29 06:06:11;;;;;;;10.15;4.13;;;8.80;93.10;;;;;;5064894;28;20814;-35
2021/03/29 06:08:41;;;;;;;13.18;4.53;;;8.90;93.00;;;;;;5046229;28;20695;-39
2021/03/29 06:11:25;;;;;;;11.35;4.30;;;8.90;93.00;;;;;;5059568;28;20032;-38
2021/03/29 06:14:07;;;;;;;8.13;4.55;;;8.90;93.10;;;;;;5064863;28;20040;-39
2021/03/29 06:16:51;;;;;;;8.75;4.95;;;9.00;93.00;;;;;;5064905;28;20029;-40
2021/03/29 06:19:52;;;;;;;8.07;4.05;;;9.00;93.00;;;;;;5065802;28;20023;-35
2021/03/29 06:22:32;;;;;;;8.90;3.80;;;9.00;93.00;;;;;;5065707;28;20373;-39
2021/03/29 06:25:08;;;;;;;10.05;4.50;;;9.00;92.90;;;;;;5065551;28;20021;-39
2021/03/29 06:27:55;;;;;;;9.93;4.22;;;9.10;92.90;;;;;;5062150;28;20048;-39
2021/03/29 06:30:24;;;;;;;12.32;4.13;;;9.10;92.90;;;;;;5066288;28;20464;-41
2021/03/29 06:32:56;;;;;;;8.05;4.15;;;9.10;92.80;;;;;;5066070;28;20024;-39
2021/03/29 06:35:27;;;;;;;8.52;4.00;;;9.10;92.80;;;;;;5065982;28;20052;-37
2021/03/29 06:38:06;;;;;;;10.50;4.13;;;9.10;92.80;;;;;;5062382;28;20024;-37
2021/03/29 06:40:31;;;;;;;7.70;3.47;;;9.10;92.80;;;;;;5065616;28;20407;-38
2021/03/29 06:42:57;;;;;;;9.52;4.00;;;9.10;92.80;;;;;;5065831;28;20452;-38
2021/03/29 06:45:23;;;;;;;8.75;4.05;;;9.20;92.80;;;;;;5066141;28;20036;-41
2021/03/29 06:47:48;;;;;;;8.65;3.90;;;9.20;92.90;;;;;;5065045;28;20128;-39
2021/03/29 06:50:27;;;;;;;11.50;4.65;;;9.20;92.80;;;;;;5066357;28;20028;-37
2021/03/29 06:52:53;;;;;;;6.97;3.63;;;9.20;92.90;;;;;;5065242;28;20028;-38
2021/03/29 06:55:24;;;;;;;7.00;4.00;;;9.30;92.80;;;;;;5065916;28;20036;-44
2021/03/29 06:58:04;;;;;;;10.77;4.10;;;9.30;92.80;;;;;;5065749;28;20028;-38
2021/03/29 07:00:35;;;;;;;10.85;4.60;;;9.30;92.70;;;;;;5045375;28;20029;-38
2021/03/29 07:03:06;;;;;;;7.20;3.88;;;9.30;92.80;;;;;;5061532;28;20025;-36
2021/03/29 07:05:32;;;;;;;8.50;3.95;;;9.30;92.80;;;;;;5054731;28;20048;-37
2021/03/29 07:08:00;;;;;;;11.10;4.72;;;9.40;92.80;;;;;;5065569;28;20249;-37
2021/03/29 07:10:26;;;;;;;8.48;3.67;;;9.40;92.80;;;;;;5066162;28;20029;-37
2021/03/29 07:12:53;;;;;;;6.90;4.22;;;9.40;92.80;;;;;;5065933;28;20040;-37
2021/03/29 07:15:19;;;;;;;8.80;4.32;;;9.50;92.80;;;;;;5065432;28;20033;-37
2021/03/29 07:17:45;;;;;;;11.30;4.60;;;9.50;92.80;;;;;;5064917;28;20032;-37
2021/03/29 07:20:21;;;;;;;9.02;3.90;;;9.50;92.80;;;;;;5065944;28;20063;-34
2021/03/29 07:22:48;;;;;;;12.00;3.80;;;9.50;92.80;;;;;;5064950;28;20452;-38
2021/03/29 07:25:15;;;;;;;10.75;4.18;;;9.60;92.70;;;;;;5066516;28;20029;-36
2021/03/29 07:27:53;;;;;;;5.82;3.65;;;9.60;92.70;;;;;;5065506;28;20024;-35
2021/03/29 07:30:39;;;;;;;7.63;3.60;;;9.70;92.80;;;;;;5065579;28;20483;-38
2021/03/29 07:33:06;;;;;;;7.18;3.72;;;9.70;92.70;;;;;;5065207;28;20020;-35
2021/03/29 07:35:55;;;;;;;7.35;3.40;;;9.70;92.70;;;;;;5064700;28;20515;-35
2021/03/29 07:38:26;;;;;;;6.78;3.92;;;9.80;92.60;;;;;;5064495;28;20032;-37
2021/03/29 07:40:54;;;;;;;6.65;4.05;;;9.90;92.60;;;;;;5064928;28;20524;-37
2021/03/29 07:43:24;;;;;;;9.32;3.75;;;9.90;92.50;;;;;;5064465;28;20100;-36
2021/03/29 07:45:55;;;;;;;12.98;4.90;;;9.90;92.60;;;;;;5064976;28;20360;-33
2021/03/29 07:48:33;;;;;;;9.45;4.60;;;10.00;92.60;;;;;;5064895;28;20048;-34
2021/03/29 07:51:00;;;;;;;11.05;4.13;;;10.00;92.50;;;;;;5064225;28;20439;-36
2021/03/29 07:54:01;;;;;;;11.13;4.43;;;10.10;92.40;;;;;;5064947;28;20128;-37
2021/03/29 07:56:29;;;;;;;13.23;5.30;;;10.20;92.50;;;;;;5036350;28;20080;-35
2021/03/29 07:58:55;;;;;;;9.85;4.05;;;10.30;92.40;;;;;;5052581;28;20093;-36
2021/03/29 08:01:21;;;;;;;8.73;4.10;;;10.30;92.30;;;;;;5065470;28;20025;-35
2021/03/29 08:03:51;;;;;;;10.63;4.45;;;10.40;92.20;;;;;;5063977;28;20124;-34
2021/03/29 08:06:46;;;;;;;9.82;4.53;;;10.40;92.20;;;;;;5056020;28;20036;-35
2021/03/29 08:09:15;;;;;;;13.32;5.15;;;10.50;92.20;;;;;;5064424;28;20059;-36
2021/03/29 08:12:02;;;;;;;13.52;4.72;;;10.60;92.10;;;;;;5064474;28;20155;-31
2021/03/29 08:14:33;;;;;;;9.52;4.85;;;10.70;92.00;;;;;;5064612;28;20028;-40
2021/03/29 08:17:34;;;;;;;12.82;4.57;;;10.80;92.00;;;;;;5064269;28;20507;-34
2021/03/29 08:20:10;;;;;;;10.18;4.05;;;10.80;92.00;;;;;;5062364;28;20028;-33
2021/03/29 08:22:36;;;;;;;9.88;4.05;;;10.80;91.80;;;;;;5064598;28;20020;-35
2021/03/29 08:25:02;;;;;;;8.65;4.22;;;10.90;91.70;;;;;;5063944;28;20017;-36
2021/03/29 08:27:30;;;;;;;7.65;4.07;;;11.00;91.70;;;;;;5065125;28;20032;-36
2021/03/29 08:30:10;;;;;;;8.75;4.22;;;11.00;91.60;;;;;;5064312;28;20017;-37
2021/03/29 08:32:40;;;;;;;10.07;3.88;;;11.10;91.80;;;;;;5063756;28;20329;-37
2021/03/29 08:35:10;;;;;;;11.80;4.63;;;11.10;91.70;;;;;;5064377;28;20031;-36
2021/03/29 08:37:52;;;;;;;10.30;4.60;;;11.10;91.70;;;;;;5064544;28;20048;-38
2021/03/29 08:40:26;;;;;;;8.25;4.28;;;11.20;91.50;;;;;;5063582;28;20017;-36
2021/03/29 08:42:56;;;;;;;10.43;4.20;;;11.30;91.50;;;;;;5064336;28;20411;-36
2021/03/29 08:45:26;;;;;;;9.15;3.88;;;11.40;91.40;;;;;;5064575;28;20118;-35
2021/03/29 08:47:55;;;;;;;7.18;4.03;;;11.40;91.40;;;;;;5064126;28;20067;-37
2021/03/29 08:50:28;;;;;;;7.80;4.20;;;11.50;91.50;;;;;;5064689;28;20063;-33
2021/03/29 08:52:59;;;;;;;10.80;4.55;;;11.50;91.40;;;;;;5057456;28;20044;-35
2021/03/29 08:55:28;;;;;;;12.18;4.80;;;11.60;91.50;;;;;;5067596;28;20039;-37
2021/03/29 08:57:54;;;;;;;7.55;3.47;;;11.60;91.30;;;;;;5067969;28;20032;-35
2021/03/29 09:00:29;;;;;;;10.90;3.83;;;11.70;91.40;;;;;;5067083;28;20089;-37
2021/03/29 09:02:55;;;;;;;8.60;3.88;;;11.70;91.20;;;;;;5067981;28;20067;-38
2021/03/29 09:05:22;;;;;;;7.95;4.05;;;11.80;90.60;;;;;;5067656;28;20055;-38
2021/03/29 09:07:51;;;;;;;10.45;4.00;;;11.90;90.40;;;;;;5066785;28;20055;-35
2021/03/29 09:10:36;;;;;;;10.88;3.88;;;12.00;90.40;;;;;;5068734;28;20025;-39
2021/03/29 09:13:07;;;;;;;7.35;4.13;;;12.10;90.10;;;;;;5067815;28;20051;-35
2021/03/29 09:15:37;;;;;;;9.50;3.92;;;12.10;89.60;;;;;;5067443;28;20085;-39
2021/03/29 09:18:16;;;;;;;9.07;3.70;;;12.20;89.20;;;;;;5066508;28;20012;-38
2021/03/29 09:20:44;;;;;;;10.43;4.30;;;12.30;89.10;;;;;;5067520;28;20376;-35
2021/03/29 09:23:12;;;;;;;8.35;4.20;;;12.30;88.70;;;;;;5067295;28;20024;-37
2021/03/29 09:25:42;;;;;;;12.27;4.10;;;12.40;88.30;;;;;;5067601;28;20029;-36
2021/03/29 09:28:33;;;;;;;9.70;3.88;;;12.50;87.80;;;;;;5067043;28;20115;-36
2021/03/29 09:31:09;;;;;;;9.60;4.15;;;12.50;87.30;;;;;;5068028;28;20024;-32
2021/03/29 09:33:35;;;;;;;8.38;3.30;;;12.60;87.00;;;;;;5066518;28;20071;-37
2021/03/29 09:36:14;;;;;;;10.40;3.95;;;12.60;85.50;;;;;;5065345;28;20037;-36
2021/03/29 09:38:44;;;;;;;5.35;3.08;;;12.70;85.10;;;;;;5067162;28;20017;-37
2021/03/29 09:41:36;;;;;;;9.25;3.63;;;12.80;84.60;;;;;;5067249;28;20066;-37
2021/03/29 09:44:07;;;;;;;9.02;4.07;;;12.80;83.70;;;;;;5065866;28;20096;-39
2021/03/29 09:46:35;;;;;;;12.52;3.63;;;12.90;83.50;;;;;;5066926;28;20499;-36
2021/03/29 09:49:19;;;;;;;7.15;3.35;;;13.00;83.10;;;;;;5066283;28;20020;-36
2021/03/29 09:52:01;;;;;;;8.98;3.95;;;13.10;82.90;;;;;;5067555;28;20047;-34
2021/03/29 09:54:30;;;;;;;7.30;3.28;;;13.10;82.30;;;;;;5063537;28;20037;-36
2021/03/29 09:56:57;;;;;;;9.40;3.63;;;13.20;81.70;;;;;;5066155;28;20029;-37
2021/03/29 09:59:28;;;;;;;5.72;3.38;;;13.30;81.70;;;;;;5066694;28;20938;-36
2021/03/29 10:01:54;;;;;;;7.97;3.80;;;13.30;81.30;;;;;;5067010;28;20047;-38
2021/03/29 10:04:23;;;;;;;12.43;4.43;;;13.40;80.70;;;;;;5066201;28;20167;-37
2021/03/29 10:06:54;;;;;;;8.95;3.72;;;13.40;80.20;;;;;;5066561;28;20158;-36
2021/03/29 10:09:36;;;;;;;8.73;3.72;;;13.50;80.70;;;;;;5066800;28;20029;-37
2021/03/29 10:12:03;;;;;;;9.38;3.47;;;13.50;80.20;;;;;;5066436;28;20048;-38
2021/03/29 10:14:34;;;;;;;8.45;4.03;;;13.50;79.20;;;;;;5066241;28;20090;-37
2021/03/29 10:17:00;;;;;;;8.30;3.97;;;13.60;79.40;;;;;;5066197;28;20124;-36
2021/03/29 10:19:31;;;;;;;7.20;3.38;;;13.60;79.40;;;;;;5066248;28;20807;-38
2021/03/29 10:22:03;;;;;;;7.32;3.80;;;13.70;79.00;;;;;;5066398;28;20126;-37
2021/03/29 10:24:31;;;;;;;8.52;3.67;;;13.80;79.00;;;;;;5065688;28;20067;-37
2021/03/29 10:26:59;;;;;;;8.15;4.10;;;13.90;78.90;;;;;;5063713;28;20587;-37
2021/03/29 10:29:39;;;;;;;12.30;3.95;;;13.90;78.10;;;;;;5061101;28;20059;-37
2021/03/29 10:32:09;;;;;;;11.48;4.65;;;14.00;78.50;;;;;;5062895;28;20025;-34
2021/03/29 10:34:38;;;;;;;7.18;3.70;;;14.00;78.10;;;;;;5065488;28;20031;-38
2021/03/29 10:37:16;;;;;;;7.78;3.38;;;14.00;77.50;;;;;;5063314;28;20942;-36
2021/03/29 10:39:42;;;;;;;5.93;3.33;;;14.10;77.00;;;;;;5065671;28;20043;-36
2021/03/29 10:42:07;;;;;;;7.95;3.83;;;14.20;77.50;;;;;;5064884;28;20447;-33
2021/03/29 10:44:33;;;;;;;7.70;3.95;;;14.30;76.90;;;;;;5064901;28;20032;-38
2021/03/29 10:46:58;;;;;;;6.78;3.92;;;14.30;77.10;;;;;;5060417;28;20021;-38
2021/03/29 10:49:24;;;;;;;8.13;4.15;;;14.30;76.40;;;;;;5064730;28;20052;-38
2021/03/29 10:51:49;;;;;;;9.52;4.03;;;14.40;75.50;;;;;;5065550;28;20079;-34
2021/03/29 10:54:15;;;;;;;8.18;3.63;;;14.50;75.40;;;;;;5066049;28;20025;-37
2021/03/29 10:56:41;;;;;;;6.32;3.10;;;14.60;75.60;;;;;;5065981;28;20590;-38
2021/03/29 10:59:06;;;;;;;8.68;3.70;;;14.60;75.50;;;;;;5066280;28;20008;-37
2021/03/29 11:01:32;;;;;;;5.80;3.33;;;14.60;74.80;;;;;;5065413;28;20020;-36
2021/03/29 11:03:57;;;;;;;12.85;4.68;;;14.70;74.80;;;;;;5065441;28;20041;-38
2021/03/29 11:06:23;;;;;;;10.18;4.50;;;14.70;74.70;;;;;;5065364;28;20535;-38
2021/03/29 11:08:48;;;;;;;7.63;4.18;;;14.80;74.20;;;;;;5065275;28;20028;-39
2021/03/29 11:11:14;;;;;;;5.85;3.30;;;14.80;73.70;;;;;;5065575;28;20017;-38
2021/03/29 11:13:40;;;;;;;8.13;3.88;;;14.90;73.80;;;;;;5061776;28;20025;-36
2021/03/29 11:16:08;;;;;;;7.82;3.85;;;15.00;73.20;;;;;;5064120;28;20026;-39
2021/03/29 11:18:33;;;;;;;6.88;3.72;;;15.00;72.90;;;;;;5065029;28;20062;-36
2021/03/29 11:20:59;;;;;;;8.07;3.45;;;15.10;73.30;;;;;;5063829;28;20404;-36
2021/03/29 11:23:25;;;;;;;7.15;3.22;;;15.10;72.40;;;;;;5064972;28;20029;-36
2021/03/29 11:25:53;;;;;;;8.48;3.65;;;15.20;72.00;;;;;;5064691;28;20036;-37
2021/03/29 11:28:18;;;;;;;8.38;3.70;;;15.30;70.70;;;;;;5065095;28;20075;-35
2021/03/29 11:30:44;;;;;;;5.43;3.30;;;15.30;70.40;;;;;;5063951;28;20425;-38
2021/03/29 11:33:09;;;;;;;5.95;3.20;;;15.40;70.30;;;;;;5065137;28;20086;-36
2021/03/29 11:35:35;;;;;;;9.80;3.40;;;15.50;69.50;;;;;;5064274;28;20058;-36
2021/03/29 11:38:00;;;;;;;7.75;3.30;;;15.60;69.20;;;;;;5065452;28;20511;-38
2021/03/29 11:40:26;;;;;;;6.60;3.00;;;15.60;70.00;;;;;;5064821;28;20044;-30
2021/03/29 11:42:51;;;;;;;4.05;2.80;;;15.70;68.20;;;;;;5064600;28;20119;-36
2021/03/29 11:45:17;;;;;;;8.48;3.97;;;15.70;69.10;;;;;;5065911;28;20020;-36
2021/03/29 11:47:44;;;;;;;8.25;3.25;;;15.80;68.20;;;;;;5064493;28;20052;-35
2021/03/29 11:50:13;;;;;;;7.57;3.30;;;15.80;68.30;;;;;;5064565;28;20016;-35
2021/03/29 11:52:39;;;;;;;7.30;2.97;;;15.90;66.70;;;;;;5064942;28;20025;-35
2021/03/29 11:55:08;;;;;;;9.35;3.42;;;16.00;66.10;;;;;;5065351;28;20025;-39
2021/03/29 11:57:34;;;;;;;8.75;3.50;;;16.00;66.30;;;;;;5064562;28;20032;-34
2021/03/29 12:00:01;;;;;;;9.57;2.95;;;16.10;66.00;;;;;;5064315;28;20494;-37
2021/03/29 12:02:34;;;;;;;5.85;3.55;;;16.10;64.20;;;;;;5064729;28;20043;-36
2021/03/29 12:05:35;;;;;;;6.75;3.50;;;16.20;63.60;;;;;;5063485;28;20080;-38
2021/03/29 12:13:06;;;;;;;7.28;3.05;;;16.40;63.80;;;;;;5065042;28;20055;-36
2021/03/29 12:15:33;;;;;;;7.65;2.88;;;16.50;61.70;;;;;;5064695;28;20101;-38
2021/03/29 12:17:58;;;;;;;8.25;3.45;;;16.50;61.80;;;;;;5064136;28;20025;-36
2021/03/29 12:20:24;;;;;;;6.47;3.75;;;16.50;61.30;;;;;;5064994;28;20035;-39
2021/03/29 12:22:59;;;;;;;5.47;2.90;;;16.60;61.10;;;;;;5064512;28;20031;-34
2021/03/29 12:25:25;;;;;;;4.75;2.90;;;16.70;60.60;;;;;;5064791;28;20581;-38
2021/03/29 12:27:52;;;;;;;5.25;2.92;;;16.70;60.70;;;;;;5068508;28;20073;-39
2021/03/29 12:30:18;;;;;;;8.50;2.72;;;16.80;60.00;;;;;;5068672;28;20028;-38
2021/03/29 12:32:48;;;;;;;7.57;3.20;;;16.80;59.30;;;;;;5068120;28;20107;-38
2021/03/29 12:35:22;;;;;;;6.20;2.90;;;16.90;59.60;;;;;;5058236;28;20032;-38
2021/03/29 12:37:54;;;;;;;8.02;3.22;;;17.00;58.90;;;;;;5067711;28;20812;-37
2021/03/29 12:40:25;;;;;;;6.47;2.92;;;17.00;57.70;;;;;;5068452;28;20032;-37
2021/03/29 12:45:26;;;;;;;6.30;3.67;;;17.10;57.50;;;;;;5066914;28;20594;-38
2021/03/29 12:47:52;;;;;;;4.90;3.25;;;17.10;57.60;;;;;;5067000;28;20033;-44
2021/03/29 12:50:20;;;;;;;5.72;3.28;;;17.10;58.40;;;;;;5067832;28;20020;-38
2021/03/29 12:52:47;;;;;;;7.63;3.67;;;17.10;58.90;;;;;;5067926;28;20115;-37
2021/03/29 12:55:16;;;;;;;6.15;3.25;;;17.10;59.10;;;;;;5067480;28;20017;-36
2021/03/29 12:57:46;;;;;;;5.85;3.83;;;17.20;58.30;;;;;;5065621;28;20515;-37
2021/03/29 13:00:14;;;;;;;5.70;3.38;;;17.30;58.20;;;;;;5066689;28;20025;-34
2021/03/29 13:02:44;;;;;;;7.60;3.22;;;17.40;57.60;;;;;;5067815;28;20066;-36
2021/03/29 13:05:15;;;;;;;6.65;3.13;;;17.50;58.20;;;;;;5067168;28;20697;-35
2021/03/29 13:07:53;;;;;;;5.20;3.22;;;17.60;58.10;;;;;;5067359;28;20132;-38